sensor_id;sensor_type;location;lat;lon;timestamp;temperature;humidity
18101;DHT22;9177;49.156;8.142;2023-06-22T00:00:10;26.40;99.90
18101;DHT22;9177;49.156;8.142;2023-06-22T00:02:37;26.50;99.90
18101;DHT22;9177;49.156;8.142;2023-06-22T00:05:05;26.40;99.90
18101;DHT22;9177;49.156;8.142;2023-06-22T00:07:32;26.40;99.90
18101;DHT22;9177;49.156;8.142;2023-06-22T00:10:00;26.40;99.90
18101;DHT22;9177;49.156;8.142;2023-06-22T00:12:26;26.50;99.90
18101;DHT22;9177;49.156;8.142;2023-06-22T00:14:53;26.40;99.90
18101;DHT22;9177;49.156;8.142;2023-06-22T00:17:20;26.40;99.90
18101;DHT22;9177;49.156;8.142;2023-06-22T00:19:47;26.40;99.90
18101;DHT22;9177;49.156;8.142;2023-06-22T00:22:18;26.50;99.90
18101;DHT22;9177;49.156;8.142;2023-06-22T00:24:53;26.50;99.90
18101;DHT22;9177;49.156;8.142;2023-06-22T00:27:21;26.50;99.90
18101;DHT22;9177;49.156;8.142;2023-06-22T00:29:48;26.40;99.90
18101;DHT22;9177;49.156;8.142;2023-06-22T00:32:15;26.40;99.90
18101;DHT22;9177;49.156;8.142;2023-06-22T00:34:42;26.40;99.90
18101;DHT22;9177;49.156;8.142;2023-06-22T00:37:09;26.40;99.90
18101;DHT22;9177;49.156;8.142;2023-06-22T00:39:36;26.40;99.90
18101;DHT22;9177;49.156;8.142;2023-06-22T00:42:04;26.40;99.90
18101;DHT22;9177;49.156;8.142;2023-06-22T00:44:33;26.40;99.90
18101;DHT22;9177;49.156;8.142;2023-06-22T00:46:59;26.40;99.90
18101;DHT22;9177;49.156;8.142;2023-06-22T00:49:27;26.40;99.90
18101;DHT22;9177;49.156;8.142;2023-06-22T00:51:53;26.40;99.90
18101;DHT22;9177;49.156;8.142;2023-06-22T00:54:20;26.40;99.90
18101;DHT22;9177;49.156;8.142;2023-06-22T00:56:50;26.40;99.90
18101;DHT22;9177;49.156;8.142;2023-06-22T00:59:18;26.40;99.90
18101;DHT22;9177;49.156;8.142;2023-06-22T01:01:46;26.40;99.90
18101;DHT22;9177;49.156;8.142;2023-06-22T01:04:13;26.40;99.90
18101;DHT22;9177;49.156;8.142;2023-06-22T01:06:45;26.40;99.90
18101;DHT22;9177;49.156;8.142;2023-06-22T01:09:17;26.40;99.90
18101;DHT22;9177;49.156;8.142;2023-06-22T01:11:47;26.40;99.90
18101;DHT22;9177;49.156;8.142;2023-06-22T01:14:20;26.40;99.90
18101;DHT22;9177;49.156;8.142;2023-06-22T01:16:51;26.40;99.90
18101;DHT22;9177;49.156;8.142;2023-06-22T01:19:38;26.40;99.90
18101;DHT22;9177;49.156;8.142;2023-06-22T01:22:07;26.40;99.90
18101;DHT22;9177;49.156;8.142;2023-06-22T01:24:45;26.40;99.90
18101;DHT22;9177;49.156;8.142;2023-06-22T01:27:31;26.40;99.90
18101;DHT22;9177;49.156;8.142;2023-06-22T01:30:02;26.40;99.90
18101;DHT22;9177;49.156;8.142;2023-06-22T01:32:32;26.40;99.90
18101;DHT22;9177;49.156;8.142;2023-06-22T01:35:01;26.40;99.90
18101;DHT22;9177;49.156;8.142;2023-06-22T01:37:30;26.40;99.90
18101;DHT22;9177;49.156;8.142;2023-06-22T01:39:58;26.40;99.90
18101;DHT22;9177;49.156;8.142;2023-06-22T01:42:25;26.40;99.90
18101;DHT22;9177;49.156;8.142;2023-06-22T01:44:53;26.30;99.90
18101;DHT22;9177;49.156;8.142;2023-06-22T01:47:22;26.40;99.90
18101;DHT22;9177;49.156;8.142;2023-06-22T01:49:49;26.40;99.90
18101;DHT22;9177;49.156;8.142;2023-06-22T01:52:17;26.40;99.90
18101;DHT22;9177;49.156;8.142;2023-06-22T01:54:47;26.40;99.90
18101;DHT22;9177;49.156;8.142;2023-06-22T01:57:14;26.40;99.90
18101;DHT22;9177;49.156;8.142;2023-06-22T01:59:47;26.40;99.90
18101;DHT22;9177;49.156;8.142;2023-06-22T02:02:17;26.40;99.90
18101;DHT22;9177;49.156;8.142;2023-06-22T02:04:51;26.40;99.90
18101;DHT22;9177;49.156;8.142;2023-06-22T02:07:19;26.30;99.90
18101;DHT22;9177;49.156;8.142;2023-06-22T02:09:49;26.30;99.90
18101;DHT22;9177;49.156;8.142;2023-06-22T02:12:21;26.40;99.90
18101;DHT22;9177;49.156;8.142;2023-06-22T02:14:48;26.30;99.90
18101;DHT22;9177;49.156;8.142;2023-06-22T02:17:17;26.30;99.90
18101;DHT22;9177;49.156;8.142;2023-06-22T02:19:44;26.30;99.90
18101;DHT22;9177;49.156;8.142;2023-06-22T02:22:12;26.30;99.90
18101;DHT22;9177;49.156;8.142;2023-06-22T02:24:40;26.30;99.90
18101;DHT22;9177;49.156;8.142;2023-06-22T02:27:07;26.30;99.90
18101;DHT22;9177;49.156;8.142;2023-06-22T02:29:34;26.30;99.90
18101;DHT22;9177;49.156;8.142;2023-06-22T02:32:01;26.30;99.90
18101;DHT22;9177;49.156;8.142;2023-06-22T02:34:27;26.30;99.90
18101;DHT22;9177;49.156;8.142;2023-06-22T02:36:54;26.30;99.90
18101;DHT22;9177;49.156;8.142;2023-06-22T02:39:24;26.30;99.90
18101;DHT22;9177;49.156;8.142;2023-06-22T02:41:51;26.30;99.90
18101;DHT22;9177;49.156;8.142;2023-06-22T02:44:18;26.30;99.90
18101;DHT22;9177;49.156;8.142;2023-06-22T02:46:45;26.30;99.90
18101;DHT22;9177;49.156;8.142;2023-06-22T02:49:12;26.30;99.90
18101;DHT22;9177;49.156;8.142;2023-06-22T02:51:41;26.30;99.90
18101;DHT22;9177;49.156;8.142;2023-06-22T02:54:08;26.30;99.90
18101;DHT22;9177;49.156;8.142;2023-06-22T02:56:37;26.30;99.90
18101;DHT22;9177;49.156;8.142;2023-06-22T02:59:06;26.30;99.90
18101;DHT22;9177;49.156;8.142;2023-06-22T03:01:33;26.30;99.90
18101;DHT22;9177;49.156;8.142;2023-06-22T03:04:03;26.30;99.90
18101;DHT22;9177;49.156;8.142;2023-06-22T03:06:30;26.30;99.90
18101;DHT22;9177;49.156;8.142;2023-06-22T03:08:59;26.30;99.90
18101;DHT22;9177;49.156;8.142;2023-06-22T03:11:27;26.30;99.90
18101;DHT22;9177;49.156;8.142;2023-06-22T03:13:55;26.30;99.90
18101;DHT22;9177;49.156;8.142;2023-06-22T03:16:22;26.30;99.90
18101;DHT22;9177;49.156;8.142;2023-06-22T03:18:49;26.30;99.90
18101;DHT22;9177;49.156;8.142;2023-06-22T03:21:15;26.30;99.90
18101;DHT22;9177;49.156;8.142;2023-06-22T03:23:42;26.30;99.90
18101;DHT22;9177;49.156;8.142;2023-06-22T03:26:09;26.30;99.90
18101;DHT22;9177;49.156;8.142;2023-06-22T03:28:37;26.30;99.90
18101;DHT22;9177;49.156;8.142;2023-06-22T03:31:05;26.30;99.90
18101;DHT22;9177;49.156;8.142;2023-06-22T03:33:33;26.30;99.90
18101;DHT22;9177;49.156;8.142;2023-06-22T03:36:00;26.30;99.90
18101;DHT22;9177;49.156;8.142;2023-06-22T03:38:27;26.30;99.90
18101;DHT22;9177;49.156;8.142;2023-06-22T03:40:53;26.30;99.90
18101;DHT22;9177;49.156;8.142;2023-06-22T03:43:20;26.30;99.90
18101;DHT22;9177;49.156;8.142;2023-06-22T03:45:47;26.30;99.90
18101;DHT22;9177;49.156;8.142;2023-06-22T03:48:15;26.30;99.90
18101;DHT22;9177;49.156;8.142;2023-06-22T03:50:42;26.30;99.90
18101;DHT22;9177;49.156;8.142;2023-06-22T03:53:10;26.30;99.90
18101;DHT22;9177;49.156;8.142;2023-06-22T03:55:40;26.30;99.90
18101;DHT22;9177;49.156;8.142;2023-06-22T03:58:09;26.20;99.90
18101;DHT22;9177;49.156;8.142;2023-06-22T04:00:37;26.30;99.90
18101;DHT22;9177;49.156;8.142;2023-06-22T04:03:03;26.30;99.90
18101;DHT22;9177;49.156;8.142;2023-06-22T04:05:34;26.30;99.90
18101;DHT22;9177;49.156;8.142;2023-06-22T04:08:01;26.30;99.90
18101;DHT22;9177;49.156;8.142;2023-06-22T04:10:27;26.20;99.90
18101;DHT22;9177;49.156;8.142;2023-06-22T04:12:54;26.20;99.90
18101;DHT22;9177;49.156;8.142;2023-06-22T04:15:21;26.30;99.90
18101;DHT22;9177;49.156;8.142;2023-06-22T04:17:48;26.20;99.90
18101;DHT22;9177;49.156;8.142;2023-06-22T04:20:15;26.30;99.90
18101;DHT22;9177;49.156;8.142;2023-06-22T04:22:43;26.30;99.90
18101;DHT22;9177;49.156;8.142;2023-06-22T04:25:10;26.30;99.90
18101;DHT22;9177;49.156;8.142;2023-06-22T04:27:40;26.30;99.90
18101;DHT22;9177;49.156;8.142;2023-06-22T04:30:08;26.30;99.90
18101;DHT22;9177;49.156;8.142;2023-06-22T04:32:36;26.30;99.90
18101;DHT22;9177;49.156;8.142;2023-06-22T04:35:03;26.30;99.90
18101;DHT22;9177;49.156;8.142;2023-06-22T04:37:31;26.20;99.90
18101;DHT22;9177;49.156;8.142;2023-06-22T04:40:00;26.30;99.90
18101;DHT22;9177;49.156;8.142;2023-06-22T04:42:29;26.30;99.90
18101;DHT22;9177;49.156;8.142;2023-06-22T04:44:56;26.30;99.90
18101;DHT22;9177;49.156;8.142;2023-06-22T04:47:22;26.20;99.90
18101;DHT22;9177;49.156;8.142;2023-06-22T04:49:49;26.20;99.90
18101;DHT22;9177;49.156;8.142;2023-06-22T04:52:16;26.20;99.90
18101;DHT22;9177;49.156;8.142;2023-06-22T04:54:43;26.30;99.90
18101;DHT22;9177;49.156;8.142;2023-06-22T04:57:14;26.30;99.90
18101;DHT22;9177;49.156;8.142;2023-06-22T04:59:41;26.20;99.90
18101;DHT22;9177;49.156;8.142;2023-06-22T05:02:09;26.30;99.90
18101;DHT22;9177;49.156;8.142;2023-06-22T05:04:36;26.20;99.90
18101;DHT22;9177;49.156;8.142;2023-06-22T05:07:04;26.30;99.90
18101;DHT22;9177;49.156;8.142;2023-06-22T05:09:31;26.30;99.90
18101;DHT22;9177;49.156;8.142;2023-06-22T05:11:59;26.20;99.90
18101;DHT22;9177;49.156;8.142;2023-06-22T05:14:29;26.30;99.90
18101;DHT22;9177;49.156;8.142;2023-06-22T05:16:56;26.30;99.90
18101;DHT22;9177;49.156;8.142;2023-06-22T05:19:24;26.20;99.90
18101;DHT22;9177;49.156;8.142;2023-06-22T05:21:59;26.20;99.90
18101;DHT22;9177;49.156;8.142;2023-06-22T05:24:25;26.30;99.90
18101;DHT22;9177;49.156;8.142;2023-06-22T05:26:52;26.30;99.90
18101;DHT22;9177;49.156;8.142;2023-06-22T05:29:19;26.30;99.90
18101;DHT22;9177;49.156;8.142;2023-06-22T05:31:51;26.30;99.90
18101;DHT22;9177;49.156;8.142;2023-06-22T05:34:18;26.30;99.90
18101;DHT22;9177;49.156;8.142;2023-06-22T05:36:45;26.30;99.90
18101;DHT22;9177;49.156;8.142;2023-06-22T05:39:12;26.30;99.90
18101;DHT22;9177;49.156;8.142;2023-06-22T05:41:40;26.30;99.90
18101;DHT22;9177;49.156;8.142;2023-06-22T05:44:07;26.30;99.90
18101;DHT22;9177;49.156;8.142;2023-06-22T05:46:34;26.30;99.90
18101;DHT22;9177;49.156;8.142;2023-06-22T05:49:02;26.30;99.90
18101;DHT22;9177;49.156;8.142;2023-06-22T05:51:29;26.30;99.90
18101;DHT22;9177;49.156;8.142;2023-06-22T05:53:56;26.20;99.90
18101;DHT22;9177;49.156;8.142;2023-06-22T05:56:22;26.30;99.90
18101;DHT22;9177;49.156;8.142;2023-06-22T05:58:49;26.30;99.90
18101;DHT22;9177;49.156;8.142;2023-06-22T06:01:17;26.30;99.90
18101;DHT22;9177;49.156;8.142;2023-06-22T06:03:43;26.30;99.90
18101;DHT22;9177;49.156;8.142;2023-06-22T06:06:12;26.30;99.90
18101;DHT22;9177;49.156;8.142;2023-06-22T06:08:39;26.30;99.90
18101;DHT22;9177;49.156;8.142;2023-06-22T06:11:06;26.30;99.90
18101;DHT22;9177;49.156;8.142;2023-06-22T06:13:33;26.30;99.90
18101;DHT22;9177;49.156;8.142;2023-06-22T06:16:00;26.30;99.90
18101;DHT22;9177;49.156;8.142;2023-06-22T06:18:27;26.30;99.90
18101;DHT22;9177;49.156;8.142;2023-06-22T06:20:54;26.30;99.90
18101;DHT22;9177;49.156;8.142;2023-06-22T06:23:22;26.30;99.90
18101;DHT22;9177;49.156;8.142;2023-06-22T06:25:49;26.30;99.90
18101;DHT22;9177;49.156;8.142;2023-06-22T06:28:15;26.30;99.90
18101;DHT22;9177;49.156;8.142;2023-06-22T06:30:42;26.30;99.90
18101;DHT22;9177;49.156;8.142;2023-06-22T06:33:09;26.30;99.90
18101;DHT22;9177;49.156;8.142;2023-06-22T06:35:39;26.30;99.90
18101;DHT22;9177;49.156;8.142;2023-06-22T06:38:06;26.30;99.90
18101;DHT22;9177;49.156;8.142;2023-06-22T06:40:34;26.30;99.90
18101;DHT22;9177;49.156;8.142;2023-06-22T06:43:01;26.30;99.90
18101;DHT22;9177;49.156;8.142;2023-06-22T06:45:29;26.30;99.90
18101;DHT22;9177;49.156;8.142;2023-06-22T06:47:58;26.30;99.90
18101;DHT22;9177;49.156;8.142;2023-06-22T06:50:25;26.30;99.90
18101;DHT22;9177;49.156;8.142;2023-06-22T06:52:52;26.30;99.90
18101;DHT22;9177;49.156;8.142;2023-06-22T06:55:20;26.30;99.90
18101;DHT22;9177;49.156;8.142;2023-06-22T06:57:52;26.30;99.90
18101;DHT22;9177;49.156;8.142;2023-06-22T07:00:19;26.30;99.90
18101;DHT22;9177;49.156;8.142;2023-06-22T07:02:46;26.30;99.90
18101;DHT22;9177;49.156;8.142;2023-06-22T07:05:14;26.40;99.90
18101;DHT22;9177;49.156;8.142;2023-06-22T07:07:41;26.40;99.90
18101;DHT22;9177;49.156;8.142;2023-06-22T07:10:09;26.40;99.90
18101;DHT22;9177;49.156;8.142;2023-06-22T07:12:36;26.40;99.90
18101;DHT22;9177;49.156;8.142;2023-06-22T07:15:08;26.40;99.90
18101;DHT22;9177;49.156;8.142;2023-06-22T07:17:36;26.40;99.90
18101;DHT22;9177;49.156;8.142;2023-06-22T07:20:05;26.40;99.90
18101;DHT22;9177;49.156;8.142;2023-06-22T07:22:37;26.40;99.90
18101;DHT22;9177;49.156;8.142;2023-06-22T07:25:05;26.40;99.90
18101;DHT22;9177;49.156;8.142;2023-06-22T07:27:35;26.40;99.90
18101;DHT22;9177;49.156;8.142;2023-06-22T07:30:08;26.40;99.90
18101;DHT22;9177;49.156;8.142;2023-06-22T07:32:35;26.40;99.90
18101;DHT22;9177;49.156;8.142;2023-06-22T07:35:03;26.40;99.90
18101;DHT22;9177;49.156;8.142;2023-06-22T07:37:30;26.50;99.90
18101;DHT22;9177;49.156;8.142;2023-06-22T07:39:58;26.50;99.90
18101;DHT22;9177;49.156;8.142;2023-06-22T07:42:25;26.50;99.90
18101;DHT22;9177;49.156;8.142;2023-06-22T07:44:54;26.50;99.90
18101;DHT22;9177;49.156;8.142;2023-06-22T07:47:23;26.50;99.90
18101;DHT22;9177;49.156;8.142;2023-06-22T07:49:50;26.60;99.90
18101;DHT22;9177;49.156;8.142;2023-06-22T07:52:20;26.60;99.90
18101;DHT22;9177;49.156;8.142;2023-06-22T07:54:47;26.60;99.90
18101;DHT22;9177;49.156;8.142;2023-06-22T07:57:14;26.60;99.90
18101;DHT22;9177;49.156;8.142;2023-06-22T07:59:42;26.60;99.90
18101;DHT22;9177;49.156;8.142;2023-06-22T08:02:09;26.60;99.90
18101;DHT22;9177;49.156;8.142;2023-06-22T08:04:37;26.60;99.90
18101;DHT22;9177;49.156;8.142;2023-06-22T08:07:05;26.60;99.90
18101;DHT22;9177;49.156;8.142;2023-06-22T08:09:33;26.60;99.90
18101;DHT22;9177;49.156;8.142;2023-06-22T08:12:00;26.60;99.90
18101;DHT22;9177;49.156;8.142;2023-06-22T08:14:29;26.60;99.90
18101;DHT22;9177;49.156;8.142;2023-06-22T08:16:56;26.70;99.90
18101;DHT22;9177;49.156;8.142;2023-06-22T08:19:23;26.60;99.90
18101;DHT22;9177;49.156;8.142;2023-06-22T08:21:52;26.70;99.90
18101;DHT22;9177;49.156;8.142;2023-06-22T08:24:18;26.70;99.90
18101;DHT22;9177;49.156;8.142;2023-06-22T08:26:45;26.70;99.90
18101;DHT22;9177;49.156;8.142;2023-06-22T08:29:13;26.70;99.90
18101;DHT22;9177;49.156;8.142;2023-06-22T08:31:40;26.70;99.90
18101;DHT22;9177;49.156;8.142;2023-06-22T08:34:08;26.70;99.90
18101;DHT22;9177;49.156;8.142;2023-06-22T08:36:35;26.70;99.90
18101;DHT22;9177;49.156;8.142;2023-06-22T08:39:08;26.70;99.90
18101;DHT22;9177;49.156;8.142;2023-06-22T08:41:35;26.70;99.90
18101;DHT22;9177;49.156;8.142;2023-06-22T08:44:02;26.70;99.90
18101;DHT22;9177;49.156;8.142;2023-06-22T08:46:30;26.70;99.90
18101;DHT22;9177;49.156;8.142;2023-06-22T08:48:59;26.80;99.90
18101;DHT22;9177;49.156;8.142;2023-06-22T08:51:26;26.70;99.90
18101;DHT22;9177;49.156;8.142;2023-06-22T08:53:54;26.70;99.90
18101;DHT22;9177;49.156;8.142;2023-06-22T08:56:22;26.80;99.90
18101;DHT22;9177;49.156;8.142;2023-06-22T08:58:50;26.70;99.90
18101;DHT22;9177;49.156;8.142;2023-06-22T09:01:17;26.70;99.90
18101;DHT22;9177;49.156;8.142;2023-06-22T09:03:45;26.70;99.90
18101;DHT22;9177;49.156;8.142;2023-06-22T09:06:19;26.70;99.90
18101;DHT22;9177;49.156;8.142;2023-06-22T09:08:47;26.70;99.90
18101;DHT22;9177;49.156;8.142;2023-06-22T09:11:14;26.70;99.90
18101;DHT22;9177;49.156;8.142;2023-06-22T09:13:43;26.80;99.90
18101;DHT22;9177;49.156;8.142;2023-06-22T09:16:10;26.70;99.90
18101;DHT22;9177;49.156;8.142;2023-06-22T09:18:37;26.80;99.90
18101;DHT22;9177;49.156;8.142;2023-06-22T09:21:04;26.80;99.90
18101;DHT22;9177;49.156;8.142;2023-06-22T09:23:32;26.80;99.90
18101;DHT22;9177;49.156;8.142;2023-06-22T09:25:59;26.80;99.90
18101;DHT22;9177;49.156;8.142;2023-06-22T09:28:26;26.80;99.90
18101;DHT22;9177;49.156;8.142;2023-06-22T09:30:55;26.80;99.90
18101;DHT22;9177;49.156;8.142;2023-06-22T09:33:25;26.80;99.90
18101;DHT22;9177;49.156;8.142;2023-06-22T09:35:52;26.80;99.90
18101;DHT22;9177;49.156;8.142;2023-06-22T09:38:19;26.80;99.90
18101;DHT22;9177;49.156;8.142;2023-06-22T09:40:46;26.80;99.90
18101;DHT22;9177;49.156;8.142;2023-06-22T09:43:14;26.80;99.90
18101;DHT22;9177;49.156;8.142;2023-06-22T09:45:41;26.90;99.90
18101;DHT22;9177;49.156;8.142;2023-06-22T09:48:10;26.80;99.90
18101;DHT22;9177;49.156;8.142;2023-06-22T09:50:37;26.90;99.90
18101;DHT22;9177;49.156;8.142;2023-06-22T09:53:04;26.90;99.90
18101;DHT22;9177;49.156;8.142;2023-06-22T09:55:31;26.80;99.90
18101;DHT22;9177;49.156;8.142;2023-06-22T09:57:58;26.90;99.90
18101;DHT22;9177;49.156;8.142;2023-06-22T10:00:25;26.90;99.90
18101;DHT22;9177;49.156;8.142;2023-06-22T10:02:53;26.90;99.90
18101;DHT22;9177;49.156;8.142;2023-06-22T10:05:23;26.90;99.90
18101;DHT22;9177;49.156;8.142;2023-06-22T10:07:50;26.90;99.90
18101;DHT22;9177;49.156;8.142;2023-06-22T10:10:18;26.90;99.90
18101;DHT22;9177;49.156;8.142;2023-06-22T10:12:46;26.90;99.90
18101;DHT22;9177;49.156;8.142;2023-06-22T10:15:15;26.90;99.90
18101;DHT22;9177;49.156;8.142;2023-06-22T10:17:42;26.90;99.90
18101;DHT22;9177;49.156;8.142;2023-06-22T10:20:10;26.90;99.90
18101;DHT22;9177;49.156;8.142;2023-06-22T10:22:42;27.00;99.90
18101;DHT22;9177;49.156;8.142;2023-06-22T10:25:10;27.00;99.90
18101;DHT22;9177;49.156;8.142;2023-06-22T10:27:38;27.00;99.90
18101;DHT22;9177;49.156;8.142;2023-06-22T10:30:07;27.00;99.90
18101;DHT22;9177;49.156;8.142;2023-06-22T10:32:35;27.00;99.90
18101;DHT22;9177;49.156;8.142;2023-06-22T10:35:03;27.00;99.90
18101;DHT22;9177;49.156;8.142;2023-06-22T10:37:30;27.00;99.90
18101;DHT22;9177;49.156;8.142;2023-06-22T10:39:59;27.00;99.90
18101;DHT22;9177;49.156;8.142;2023-06-22T10:42:26;27.00;99.90
18101;DHT22;9177;49.156;8.142;2023-06-22T10:44:53;27.00;99.90
18101;DHT22;9177;49.156;8.142;2023-06-22T10:47:20;27.00;99.90
18101;DHT22;9177;49.156;8.142;2023-06-22T10:49:47;27.00;99.90
18101;DHT22;9177;49.156;8.142;2023-06-22T10:52:14;27.00;99.90
18101;DHT22;9177;49.156;8.142;2023-06-22T10:54:42;27.00;99.90
18101;DHT22;9177;49.156;8.142;2023-06-22T10:57:10;27.00;99.90
18101;DHT22;9177;49.156;8.142;2023-06-22T10:59:37;27.10;99.90
18101;DHT22;9177;49.156;8.142;2023-06-22T11:02:05;27.10;99.90
18101;DHT22;9177;49.156;8.142;2023-06-22T11:04:32;27.10;99.90
18101;DHT22;9177;49.156;8.142;2023-06-22T11:07:00;27.10;99.90
18101;DHT22;9177;49.156;8.142;2023-06-22T11:09:27;27.10;99.90
18101;DHT22;9177;49.156;8.142;2023-06-22T11:11:56;27.10;99.90
18101;DHT22;9177;49.156;8.142;2023-06-22T11:14:26;27.10;99.90
18101;DHT22;9177;49.156;8.142;2023-06-22T11:16:53;27.10;99.90
18101;DHT22;9177;49.156;8.142;2023-06-22T11:19:20;27.00;99.90
18101;DHT22;9177;49.156;8.142;2023-06-22T11:21:47;27.00;99.90
18101;DHT22;9177;49.156;8.142;2023-06-22T11:24:15;27.00;99.90
18101;DHT22;9177;49.156;8.142;2023-06-22T11:26:43;27.00;99.90
18101;DHT22;9177;49.156;8.142;2023-06-22T11:29:10;27.00;99.90
18101;DHT22;9177;49.156;8.142;2023-06-22T11:31:39;27.10;99.90
18101;DHT22;9177;49.156;8.142;2023-06-22T11:34:08;27.10;99.90
18101;DHT22;9177;49.156;8.142;2023-06-22T11:36:36;27.00;99.90
18101;DHT22;9177;49.156;8.142;2023-06-22T11:39:03;27.00;99.90
18101;DHT22;9177;49.156;8.142;2023-06-22T11:41:31;27.00;99.90
18101;DHT22;9177;49.156;8.142;2023-06-22T11:43:58;27.00;99.90
18101;DHT22;9177;49.156;8.142;2023-06-22T11:46:26;27.00;99.90
18101;DHT22;9177;49.156;8.142;2023-06-22T11:48:57;27.00;99.90
18101;DHT22;9177;49.156;8.142;2023-06-22T11:51:24;27.00;99.90
18101;DHT22;9177;49.156;8.142;2023-06-22T11:53:52;27.00;99.90
18101;DHT22;9177;49.156;8.142;2023-06-22T11:56:19;27.00;99.90
18101;DHT22;9177;49.156;8.142;2023-06-22T11:58:46;27.00;99.90
18101;DHT22;9177;49.156;8.142;2023-06-22T12:01:13;27.00;99.90
18101;DHT22;9177;49.156;8.142;2023-06-22T12:03:41;27.00;99.90
18101;DHT22;9177;49.156;8.142;2023-06-22T12:06:10;27.00;99.90
18101;DHT22;9177;49.156;8.142;2023-06-22T12:08:37;27.10;99.90
18101;DHT22;9177;49.156;8.142;2023-06-22T12:11:05;27.10;99.90
18101;DHT22;9177;49.156;8.142;2023-06-22T12:13:32;27.10;99.90
18101;DHT22;9177;49.156;8.142;2023-06-22T12:15:59;27.10;99.90
18101;DHT22;9177;49.156;8.142;2023-06-22T12:18:26;27.10;99.90
18101;DHT22;9177;49.156;8.142;2023-06-22T12:20:53;27.10;99.90
18101;DHT22;9177;49.156;8.142;2023-06-22T12:23:22;27.10;99.90
18101;DHT22;9177;49.156;8.142;2023-06-22T12:25:49;27.10;99.90
18101;DHT22;9177;49.156;8.142;2023-06-22T12:28:16;27.20;99.90
18101;DHT22;9177;49.156;8.142;2023-06-22T12:30:44;27.20;99.90
18101;DHT22;9177;49.156;8.142;2023-06-22T12:33:11;27.20;99.90
18101;DHT22;9177;49.156;8.142;2023-06-22T12:35:38;27.20;99.90
18101;DHT22;9177;49.156;8.142;2023-06-22T12:38:05;27.20;99.90
18101;DHT22;9177;49.156;8.142;2023-06-22T12:40:35;27.20;99.90
18101;DHT22;9177;49.156;8.142;2023-06-22T12:43:02;27.20;99.90
18101;DHT22;9177;49.156;8.142;2023-06-22T12:45:29;27.20;99.90
18101;DHT22;9177;49.156;8.142;2023-06-22T12:47:59;27.30;99.90
18101;DHT22;9177;49.156;8.142;2023-06-22T12:50:26;27.30;99.90
18101;DHT22;9177;49.156;8.142;2023-06-22T12:52:53;27.30;99.90
18101;DHT22;9177;49.156;8.142;2023-06-22T12:55:21;27.30;99.90
18101;DHT22;9177;49.156;8.142;2023-06-22T12:57:49;27.30;99.90
18101;DHT22;9177;49.156;8.142;2023-06-22T13:00:20;27.40;99.90
18101;DHT22;9177;49.156;8.142;2023-06-22T13:02:47;27.40;99.90
18101;DHT22;9177;49.156;8.142;2023-06-22T13:05:14;27.40;99.90
18101;DHT22;9177;49.156;8.142;2023-06-22T13:07:41;27.50;99.90
18101;DHT22;9177;49.156;8.142;2023-06-22T13:10:09;27.50;99.90
18101;DHT22;9177;49.156;8.142;2023-06-22T13:12:36;27.60;99.90
18101;DHT22;9177;49.156;8.142;2023-06-22T13:15:06;27.60;99.90
18101;DHT22;9177;49.156;8.142;2023-06-22T13:17:34;27.60;99.90
18101;DHT22;9177;49.156;8.142;2023-06-22T13:20:01;27.60;99.90
18101;DHT22;9177;49.156;8.142;2023-06-22T13:22:31;27.50;99.90
18101;DHT22;9177;49.156;8.142;2023-06-22T13:24:59;27.50;99.90
18101;DHT22;9177;49.156;8.142;2023-06-22T13:27:26;27.50;99.90
18101;DHT22;9177;49.156;8.142;2023-06-22T13:29:53;27.50;99.90
18101;DHT22;9177;49.156;8.142;2023-06-22T13:32:22;27.50;99.90
18101;DHT22;9177;49.156;8.142;2023-06-22T13:34:49;27.40;99.90
18101;DHT22;9177;49.156;8.142;2023-06-22T13:37:17;27.30;99.90
18101;DHT22;9177;49.156;8.142;2023-06-22T13:39:45;27.30;99.90
18101;DHT22;9177;49.156;8.142;2023-06-22T13:42:12;27.30;99.90
18101;DHT22;9177;49.156;8.142;2023-06-22T13:44:40;27.20;99.90
18101;DHT22;9177;49.156;8.142;2023-06-22T13:47:07;27.20;99.90
18101;DHT22;9177;49.156;8.142;2023-06-22T13:49:36;27.10;99.90
18101;DHT22;9177;49.156;8.142;2023-06-22T13:52:03;27.10;99.90
18101;DHT22;9177;49.156;8.142;2023-06-22T13:54:35;27.10;99.90
18101;DHT22;9177;49.156;8.142;2023-06-22T13:57:03;27.00;99.90
18101;DHT22;9177;49.156;8.142;2023-06-22T13:59:30;27.00;99.90
18101;DHT22;9177;49.156;8.142;2023-06-22T14:01:57;27.00;99.90
18101;DHT22;9177;49.156;8.142;2023-06-22T14:04:24;27.00;99.90
18101;DHT22;9177;49.156;8.142;2023-06-22T14:06:53;26.90;99.90
18101;DHT22;9177;49.156;8.142;2023-06-22T14:09:21;26.90;99.90
18101;DHT22;9177;49.156;8.142;2023-06-22T14:11:48;26.90;99.90
18101;DHT22;9177;49.156;8.142;2023-06-22T14:14:15;26.90;99.90
18101;DHT22;9177;49.156;8.142;2023-06-22T14:16:42;26.90;99.90
18101;DHT22;9177;49.156;8.142;2023-06-22T14:19:10;26.90;99.90
18101;DHT22;9177;49.156;8.142;2023-06-22T14:21:37;26.90;99.90
18101;DHT22;9177;49.156;8.142;2023-06-22T14:24:05;26.80;99.90
18101;DHT22;9177;49.156;8.142;2023-06-22T14:26:33;26.80;99.90
18101;DHT22;9177;49.156;8.142;2023-06-22T14:29:00;26.80;99.90
18101;DHT22;9177;49.156;8.142;2023-06-22T14:31:27;26.80;99.90
18101;DHT22;9177;49.156;8.142;2023-06-22T14:33:55;26.80;99.90
18101;DHT22;9177;49.156;8.142;2023-06-22T14:36:22;26.80;99.90
18101;DHT22;9177;49.156;8.142;2023-06-22T14:38:49;26.80;99.90
18101;DHT22;9177;49.156;8.142;2023-06-22T14:41:18;26.80;99.90
18101;DHT22;9177;49.156;8.142;2023-06-22T14:43:46;26.80;99.90
18101;DHT22;9177;49.156;8.142;2023-06-22T14:46:14;26.90;99.90
18101;DHT22;9177;49.156;8.142;2023-06-22T14:48:42;26.90;99.90
18101;DHT22;9177;49.156;8.142;2023-06-22T14:51:10;26.90;99.90
18101;DHT22;9177;49.156;8.142;2023-06-22T14:53:37;27.00;99.90
18101;DHT22;9177;49.156;8.142;2023-06-22T14:56:04;27.00;99.90
18101;DHT22;9177;49.156;8.142;2023-06-22T14:58:33;27.00;99.90
18101;DHT22;9177;49.156;8.142;2023-06-22T15:01:01;27.10;99.90
18101;DHT22;9177;49.156;8.142;2023-06-22T15:03:29;27.10;99.90
18101;DHT22;9177;49.156;8.142;2023-06-22T15:05:58;27.20;99.90
18101;DHT22;9177;49.156;8.142;2023-06-22T15:08:25;27.20;99.90
18101;DHT22;9177;49.156;8.142;2023-06-22T15:10:52;27.20;99.90
18101;DHT22;9177;49.156;8.142;2023-06-22T15:13:20;27.30;99.90
18101;DHT22;9177;49.156;8.142;2023-06-22T15:15:50;27.30;99.90
18101;DHT22;9177;49.156;8.142;2023-06-22T15:18:17;27.30;99.90
18101;DHT22;9177;49.156;8.142;2023-06-22T15:20:44;27.30;99.90
18101;DHT22;9177;49.156;8.142;2023-06-22T15:23:12;27.30;99.90
18101;DHT22;9177;49.156;8.142;2023-06-22T15:25:39;27.30;99.90
18101;DHT22;9177;49.156;8.142;2023-06-22T15:28:07;27.30;99.90
18101;DHT22;9177;49.156;8.142;2023-06-22T15:30:35;27.30;99.90
18101;DHT22;9177;49.156;8.142;2023-06-22T15:33:04;27.30;99.90
18101;DHT22;9177;49.156;8.142;2023-06-22T15:35:31;27.40;99.90
18101;DHT22;9177;49.156;8.142;2023-06-22T15:37:58;27.40;99.90
18101;DHT22;9177;49.156;8.142;2023-06-22T15:40:27;27.40;99.90
18101;DHT22;9177;49.156;8.142;2023-06-22T15:42:54;27.40;99.90
18101;DHT22;9177;49.156;8.142;2023-06-22T15:45:23;27.40;99.90
18101;DHT22;9177;49.156;8.142;2023-06-22T15:47:50;27.40;99.90